sensor_id;sensor_type;location;lat;lon;timestamp;P1;durP1;ratioP1;P2;durP2;ratioP2
44098;SDS011;29762;50.086;14.364;2022-08-01T00:03:25;3.13;;;2.83;;
44098;SDS011;29762;50.086;14.364;2022-08-01T00:08:44;3.92;;;2.80;;
44098;SDS011;29762;50.086;14.364;2022-08-01T00:14:03;3.20;;;2.90;;
44098;SDS011;29762;50.086;14.364;2022-08-01T00:19:23;3.20;;;2.90;;
44098;SDS011;29762;50.086;14.364;2022-08-01T00:24:42;4.35;;;3.00;;
44098;SDS011;29762;50.086;14.364;2022-08-01T00:30:01;3.30;;;3.00;;
44098;SDS011;29762;50.086;14.364;2022-08-01T00:35:21;3.00;;;2.80;;
44098;SDS011;29762;50.086;14.364;2022-08-01T00:40:40;3.72;;;3.17;;
44098;SDS011;29762;50.086;14.364;2022-08-01T00:46:00;3.50;;;3.20;;
44098;SDS011;29762;50.086;14.364;2022-08-01T00:51:19;3.95;;;3.53;;
44098;SDS011;29762;50.086;14.364;2022-08-01T00:56:38;3.45;;;3.15;;
44098;SDS011;29762;50.086;14.364;2022-08-01T01:01:58;5.07;;;3.28;;
44098;SDS011;29762;50.086;14.364;2022-08-01T01:07:19;4.10;;;3.20;;
44098;SDS011;29762;50.086;14.364;2022-08-01T01:13:04;5.35;;;3.22;;
44098;SDS011;29762;50.086;14.364;2022-08-01T01:18:33;3.40;;;3.00;;
44098;SDS011;29762;50.086;14.364;2022-08-01T01:29:25;3.85;;;3.40;;
44098;SDS011;29762;50.086;14.364;2022-08-01T01:34:47;4.18;;;3.20;;
44098;SDS011;29762;50.086;14.364;2022-08-01T01:40:09;3.65;;;3.35;;
44098;SDS011;29762;50.086;14.364;2022-08-01T01:45:30;4.55;;;3.10;;
44098;SDS011;29762;50.086;14.364;2022-08-01T01:50:50;3.65;;;3.35;;
44098;SDS011;29762;50.086;14.364;2022-08-01T01:56:10;3.80;;;3.15;;
44098;SDS011;29762;50.086;14.364;2022-08-01T02:01:31;8.15;;;3.33;;
44098;SDS011;29762;50.086;14.364;2022-08-01T02:06:54;4.20;;;3.33;;
44098;SDS011;29762;50.086;14.364;2022-08-01T02:12:16;4.00;;;3.60;;
44098;SDS011;29762;50.086;14.364;2022-08-01T02:17:37;4.03;;;3.60;;
44098;SDS011;29762;50.086;14.364;2022-08-01T02:23:01;4.35;;;3.40;;
44098;SDS011;29762;50.086;14.364;2022-08-01T02:28:29;4.55;;;3.40;;
44098;SDS011;29762;50.086;14.364;2022-08-01T02:33:57;3.70;;;3.40;;
44098;SDS011;29762;50.086;14.364;2022-08-01T02:39:19;5.13;;;3.70;;
44098;SDS011;29762;50.086;14.364;2022-08-01T02:44:41;4.05;;;3.35;;
44098;SDS011;29762;50.086;14.364;2022-08-01T02:50:02;3.90;;;3.50;;
44098;SDS011;29762;50.086;14.364;2022-08-01T02:55:22;4.75;;;3.85;;
44098;SDS011;29762;50.086;14.364;2022-08-01T03:00:43;4.03;;;3.28;;
44098;SDS011;29762;50.086;14.364;2022-08-01T03:06:04;3.97;;;3.58;;
44098;SDS011;29762;50.086;14.364;2022-08-01T03:11:24;3.70;;;3.40;;
44098;SDS011;29762;50.086;14.364;2022-08-01T03:16:45;3.75;;;3.45;;
44098;SDS011;29762;50.086;14.364;2022-08-01T03:22:06;3.60;;;3.30;;
44098;SDS011;29762;50.086;14.364;2022-08-01T03:27:27;4.18;;;3.75;;
44098;SDS011;29762;50.086;14.364;2022-08-01T03:32:47;4.20;;;3.80;;
44098;SDS011;29762;50.086;14.364;2022-08-01T03:38:08;4.88;;;3.70;;
44098;SDS011;29762;50.086;14.364;2022-08-01T03:43:32;4.25;;;3.65;;
44098;SDS011;29762;50.086;14.364;2022-08-01T03:48:54;4.03;;;3.60;;
44098;SDS011;29762;50.086;14.364;2022-08-01T03:54:16;4.90;;;3.60;;
44098;SDS011;29762;50.086;14.364;2022-08-01T03:59:37;5.05;;;3.97;;
44098;SDS011;29762;50.086;14.364;2022-08-01T04:04:57;5.50;;;4.00;;
44098;SDS011;29762;50.086;14.364;2022-08-01T04:10:18;4.38;;;3.83;;
44098;SDS011;29762;50.086;14.364;2022-08-01T04:15:37;4.10;;;3.80;;
44098;SDS011;29762;50.086;14.364;2022-08-01T04:20:56;4.93;;;3.65;;
44098;SDS011;29762;50.086;14.364;2022-08-01T04:26:15;4.13;;;3.65;;
44098;SDS011;29762;50.086;14.364;2022-08-01T04:31:35;6.07;;;3.65;;
44098;SDS011;29762;50.086;14.364;2022-08-01T04:36:55;4.30;;;3.90;;
44098;SDS011;29762;50.086;14.364;2022-08-01T04:42:14;4.00;;;3.70;;
44098;SDS011;29762;50.086;14.364;2022-08-01T04:47:38;4.63;;;4.03;;
44098;SDS011;29762;50.086;14.364;2022-08-01T04:52:58;4.43;;;3.92;;
44098;SDS011;29762;50.086;14.364;2022-08-01T04:58:18;4.22;;;3.92;;
44098;SDS011;29762;50.086;14.364;2022-08-01T05:03:37;5.32;;;4.00;;
44098;SDS011;29762;50.086;14.364;2022-08-01T05:08:57;5.18;;;4.05;;
44098;SDS011;29762;50.086;14.364;2022-08-01T05:14:16;4.95;;;3.88;;
44098;SDS011;29762;50.086;14.364;2022-08-01T05:19:36;3.90;;;3.60;;
44098;SDS011;29762;50.086;14.364;2022-08-01T05:24:56;4.15;;;3.83;;
44098;SDS011;29762;50.086;14.364;2022-08-01T05:30:15;5.63;;;4.00;;
44098;SDS011;29762;50.086;14.364;2022-08-01T05:35:35;4.13;;;3.72;;
44098;SDS011;29762;50.086;14.364;2022-08-01T05:40:54;4.75;;;3.85;;
44098;SDS011;29762;50.086;14.364;2022-08-01T05:46:14;5.25;;;3.72;;
44098;SDS011;29762;50.086;14.364;2022-08-01T05:51:33;3.88;;;3.58;;
44098;SDS011;29762;50.086;14.364;2022-08-01T05:56:52;5.32;;;3.70;;
44098;SDS011;29762;50.086;14.364;2022-08-01T06:02:12;4.05;;;3.65;;
44098;SDS011;29762;50.086;14.364;2022-08-01T06:07:31;3.88;;;3.58;;
44098;SDS011;29762;50.086;14.364;2022-08-01T06:12:51;3.70;;;3.40;;
44098;SDS011;29762;50.086;14.364;2022-08-01T06:18:10;4.85;;;3.72;;
44098;SDS011;29762;50.086;14.364;2022-08-01T06:23:29;3.70;;;3.40;;
44098;SDS011;29762;50.086;14.364;2022-08-01T06:28:49;4.13;;;3.67;;
44098;SDS011;29762;50.086;14.364;2022-08-01T06:34:09;5.15;;;3.60;;
44098;SDS011;29762;50.086;14.364;2022-08-01T06:39:28;3.70;;;3.38;;
44098;SDS011;29762;50.086;14.364;2022-08-01T06:44:47;3.65;;;3.35;;
44098;SDS011;29762;50.086;14.364;2022-08-01T06:50:07;3.55;;;3.25;;
44098;SDS011;29762;50.086;14.364;2022-08-01T06:55:28;4.95;;;3.20;;
44098;SDS011;29762;50.086;14.364;2022-08-01T07:00:47;3.50;;;3.20;;
44098;SDS011;29762;50.086;14.364;2022-08-01T07:06:06;3.58;;;3.28;;
44098;SDS011;29762;50.086;14.364;2022-08-01T07:11:26;4.70;;;3.47;;
44098;SDS011;29762;50.086;14.364;2022-08-01T07:16:45;3.45;;;3.15;;
44098;SDS011;29762;50.086;14.364;2022-08-01T07:22:05;3.28;;;2.97;;
44098;SDS011;29762;50.086;14.364;2022-08-01T07:27:25;3.17;;;2.88;;
44098;SDS011;29762;50.086;14.364;2022-08-01T07:32:44;3.35;;;3.05;;
44098;SDS011;29762;50.086;14.364;2022-08-01T07:38:04;3.47;;;3.03;;
44098;SDS011;29762;50.086;14.364;2022-08-01T07:43:24;2.95;;;2.72;;
44098;SDS011;29762;50.086;14.364;2022-08-01T07:48:43;3.50;;;2.67;;
44098;SDS011;29762;50.086;14.364;2022-08-01T07:54:02;3.20;;;2.90;;
44098;SDS011;29762;50.086;14.364;2022-08-01T07:59:21;3.00;;;2.72;;
44098;SDS011;29762;50.086;14.364;2022-08-01T08:04:42;4.25;;;2.70;;
44098;SDS011;29762;50.086;14.364;2022-08-01T08:10:02;3.25;;;2.80;;
44098;SDS011;29762;50.086;14.364;2022-08-01T08:15:22;3.42;;;3.13;;
44098;SDS011;29762;50.086;14.364;2022-08-01T08:20:42;2.80;;;2.60;;
44098;SDS011;29762;50.086;14.364;2022-08-01T08:26:02;2.70;;;2.50;;
44098;SDS011;29762;50.086;14.364;2022-08-01T08:31:21;3.15;;;2.90;;
44098;SDS011;29762;50.086;14.364;2022-08-01T08:36:41;3.00;;;2.70;;
44098;SDS011;29762;50.086;14.364;2022-08-01T08:42:00;2.63;;;2.42;;
44098;SDS011;29762;50.086;14.364;2022-08-01T08:47:21;3.08;;;2.88;;
44098;SDS011;29762;50.086;14.364;2022-08-01T08:52:41;3.47;;;2.70;;
44098;SDS011;29762;50.086;14.364;2022-08-01T08:58:02;3.53;;;2.85;;
44098;SDS011;29762;50.086;14.364;2022-08-01T09:03:24;2.92;;;2.70;;
44098;SDS011;29762;50.086;14.364;2022-08-01T09:08:44;3.70;;;2.78;;
44098;SDS011;29762;50.086;14.364;2022-08-01T09:19:47;3.55;;;3.00;;
44098;SDS011;29762;50.086;14.364;2022-08-01T09:25:10;5.60;;;3.90;;
44098;SDS011;29762;50.086;14.364;2022-08-01T09:30:30;7.55;;;4.68;;
44098;SDS011;29762;50.086;14.364;2022-08-01T09:35:57;10.43;;;4.60;;
44098;SDS011;29762;50.086;14.364;2022-08-01T09:41:17;5.30;;;3.33;;
44098;SDS011;29762;50.086;14.364;2022-08-01T09:46:47;3.28;;;2.80;;
44098;SDS011;29762;50.086;14.364;2022-08-01T09:52:22;3.13;;;2.60;;
44098;SDS011;29762;50.086;14.364;2022-08-01T09:57:54;4.13;;;2.50;;
44098;SDS011;29762;50.086;14.364;2022-08-01T10:03:18;2.90;;;2.70;;
44098;SDS011;29762;50.086;14.364;2022-08-01T10:08:46;2.83;;;2.63;;
44098;SDS011;29762;50.086;14.364;2022-08-01T10:14:06;3.00;;;2.40;;
44098;SDS011;29762;50.086;14.364;2022-08-01T10:19:27;2.90;;;2.20;;
44098;SDS011;29762;50.086;14.364;2022-08-01T10:24:47;2.60;;;2.40;;
44098;SDS011;29762;50.086;14.364;2022-08-01T10:30:07;2.55;;;2.33;;
44098;SDS011;29762;50.086;14.364;2022-08-01T10:35:28;2.38;;;2.17;;
44098;SDS011;29762;50.086;14.364;2022-08-01T10:40:48;2.97;;;2.45;;
44098;SDS011;29762;50.086;14.364;2022-08-01T10:46:09;2.60;;;2.40;;
44098;SDS011;29762;50.086;14.364;2022-08-01T10:51:28;3.08;;;2.40;;
44098;SDS011;29762;50.086;14.364;2022-08-01T10:56:49;2.53;;;2.30;;
44098;SDS011;29762;50.086;14.364;2022-08-01T11:02:08;3.92;;;2.60;;
44098;SDS011;29762;50.086;14.364;2022-08-01T11:07:39;3.22;;;2.30;;
44098;SDS011;29762;50.086;14.364;2022-08-01T11:13:03;6.03;;;2.28;;
44098;SDS011;29762;50.086;14.364;2022-08-01T11:23:49;4.90;;;2.90;;
44098;SDS011;29762;50.086;14.364;2022-08-01T11:29:14;5.68;;;2.60;;
44098;SDS011;29762;50.086;14.364;2022-08-01T11:34:54;3.67;;;2.40;;
44098;SDS011;29762;50.086;14.364;2022-08-01T11:51:14;4.85;;;2.50;;
44098;SDS011;29762;50.086;14.364;2022-08-01T11:56:34;6.78;;;2.58;;
44098;SDS011;29762;50.086;14.364;2022-08-01T12:01:53;4.10;;;2.20;;
44098;SDS011;29762;50.086;14.364;2022-08-01T12:07:17;3.17;;;1.90;;
44098;SDS011;29762;50.086;14.364;2022-08-01T12:12:41;3.25;;;2.00;;
44098;SDS011;29762;50.086;14.364;2022-08-01T12:18:05;3.72;;;2.00;;
44098;SDS011;29762;50.086;14.364;2022-08-01T12:23:26;2.65;;;1.98;;
44098;SDS011;29762;50.086;14.364;2022-08-01T12:28:45;3.22;;;2.00;;
44098;SDS011;29762;50.086;14.364;2022-08-01T12:39:49;3.45;;;1.70;;
44098;SDS011;29762;50.086;14.364;2022-08-01T12:45:09;2.15;;;1.38;;
44098;SDS011;29762;50.086;14.364;2022-08-01T12:50:30;2.70;;;1.52;;
44098;SDS011;29762;50.086;14.364;2022-08-01T12:55:52;1.20;;;1.10;;
44098;SDS011;29762;50.086;14.364;2022-08-01T13:01:13;1.15;;;1.05;;
44098;SDS011;29762;50.086;14.364;2022-08-01T13:06:32;1.48;;;1.13;;
44098;SDS011;29762;50.086;14.364;2022-08-01T13:11:54;1.70;;;1.08;;
44098;SDS011;29762;50.086;14.364;2022-08-01T13:17:29;1.30;;;1.10;;
44098;SDS011;29762;50.086;14.364;2022-08-01T13:22:49;1.35;;;1.05;;
44098;SDS011;29762;50.086;14.364;2022-08-01T13:28:19;1.50;;;1.40;;
44098;SDS011;29762;50.086;14.364;2022-08-01T13:33:41;2.75;;;1.17;;
44098;SDS011;29762;50.086;14.364;2022-08-01T13:39:06;1.20;;;1.10;;
44098;SDS011;29762;50.086;14.364;2022-08-01T13:44:44;2.33;;;1.33;;
44098;SDS011;29762;50.086;14.364;2022-08-01T13:50:05;1.27;;;1.10;;
44098;SDS011;29762;50.086;14.364;2022-08-01T13:55:25;2.13;;;1.10;;
44098;SDS011;29762;50.086;14.364;2022-08-01T14:00:44;1.75;;;1.00;;
44098;SDS011;29762;50.086;14.364;2022-08-01T14:06:04;1.23;;;1.00;;
44098;SDS011;29762;50.086;14.364;2022-08-01T14:11:24;0.88;;;0.85;;
44098;SDS011;29762;50.086;14.364;2022-08-01T14:16:43;0.93;;;0.93;;
44098;SDS011;29762;50.086;14.364;2022-08-01T14:22:06;1.67;;;1.30;;
44098;SDS011;29762;50.086;14.364;2022-08-01T14:27:25;1.00;;;1.00;;
44098;SDS011;29762;50.086;14.364;2022-08-01T14:32:45;1.00;;;0.90;;
44098;SDS011;29762;50.086;14.364;2022-08-01T14:38:05;0.75;;;0.75;;
44098;SDS011;29762;50.086;14.364;2022-08-01T14:43:24;2.17;;;0.85;;
44098;SDS011;29762;50.086;14.364;2022-08-01T14:48:44;1.15;;;1.08;;
44098;SDS011;29762;50.086;14.364;2022-08-01T14:54:04;1.00;;;1.00;;
44098;SDS011;29762;50.086;14.364;2022-08-01T14:59:24;0.70;;;0.70;;
44098;SDS011;29762;50.086;14.364;2022-08-01T15:04:44;0.60;;;0.60;;
44098;SDS011;29762;50.086;14.364;2022-08-01T15:10:04;0.82;;;0.80;;
44098;SDS011;29762;50.086;14.364;2022-08-01T15:15:25;1.67;;;0.80;;
44098;SDS011;29762;50.086;14.364;2022-08-01T15:20:45;0.88;;;0.70;;
44098;SDS011;29762;50.086;14.364;2022-08-01T15:26:04;1.65;;;0.88;;
44098;SDS011;29762;50.086;14.364;2022-08-01T15:31:28;1.25;;;0.70;;
44098;SDS011;29762;50.086;14.364;2022-08-01T15:36:47;0.70;;;0.70;;
44098;SDS011;29762;50.086;14.364;2022-08-01T15:42:07;2.05;;;1.00;;
44098;SDS011;29762;50.086;14.364;2022-08-01T15:47:28;1.60;;;0.90;;
44098;SDS011;29762;50.086;14.364;2022-08-01T15:52:47;1.58;;;0.90;;
44098;SDS011;29762;50.086;14.364;2022-08-01T15:58:07;3.20;;;1.00;;
44098;SDS011;29762;50.086;14.364;2022-08-01T16:03:26;1.50;;;1.17;;
44098;SDS011;29762;50.086;14.364;2022-08-01T16:08:46;3.05;;;1.00;;
44098;SDS011;29762;50.086;14.364;2022-08-01T16:14:06;0.88;;;0.88;;
44098;SDS011;29762;50.086;14.364;2022-08-01T16:19:25;2.15;;;0.90;;
44098;SDS011;29762;50.086;14.364;2022-08-01T16:24:45;1.48;;;0.88;;
44098;SDS011;29762;50.086;14.364;2022-08-01T16:30:04;0.80;;;0.80;;
44098;SDS011;29762;50.086;14.364;2022-08-01T16:35:24;2.78;;;0.90;;
44098;SDS011;29762;50.086;14.364;2022-08-01T16:40:43;1.25;;;0.73;;
44098;SDS011;29762;50.086;14.364;2022-08-01T16:46:05;1.27;;;0.70;;
44098;SDS011;29762;50.086;14.364;2022-08-01T16:51:25;0.80;;;0.80;;
44098;SDS011;29762;50.086;14.364;2022-08-01T16:56:45;3.17;;;0.75;;
44098;SDS011;29762;50.086;14.364;2022-08-01T17:02:05;0.98;;;0.60;;
44098;SDS011;29762;50.086;14.364;2022-08-01T17:07:25;3.40;;;0.90;;
44098;SDS011;29762;50.086;14.364;2022-08-01T17:12:45;1.88;;;1.00;;
44098;SDS011;29762;50.086;14.364;2022-08-01T17:18:05;2.63;;;1.13;;
44098;SDS011;29762;50.086;14.364;2022-08-01T17:23:25;1.95;;;0.85;;
44098;SDS011;29762;50.086;14.364;2022-08-01T17:28:44;2.22;;;0.85;;
44098;SDS011;29762;50.086;14.364;2022-08-01T17:34:04;3.50;;;0.77;;
44098;SDS011;29762;50.086;14.364;2022-08-01T17:39:24;4.88;;;1.20;;
44098;SDS011;29762;50.086;14.364;2022-08-01T17:44:43;4.80;;;0.88;;
44098;SDS011;29762;50.086;14.364;2022-08-01T17:50:03;2.55;;;0.80;;
44098;SDS011;29762;50.086;14.364;2022-08-01T17:55:24;0.98;;;0.70;;
44098;SDS011;29762;50.086;14.364;2022-08-01T18:00:43;1.75;;;0.65;;
44098;SDS011;29762;50.086;14.364;2022-08-01T18:06:04;1.63;;;0.82;;
44098;SDS011;29762;50.086;14.364;2022-08-01T18:11:23;2.42;;;1.00;;
44098;SDS011;29762;50.086;14.364;2022-08-01T18:16:43;1.95;;;0.90;;
44098;SDS011;29762;50.086;14.364;2022-08-01T18:22:03;2.28;;;0.80;;
44098;SDS011;29762;50.086;14.364;2022-08-01T18:27:22;3.35;;;0.80;;
44098;SDS011;29762;50.086;14.364;2022-08-01T18:32:42;1.80;;;0.82;;
44098;SDS011;29762;50.086;14.364;2022-08-01T18:38:01;0.95;;;0.75;;
44098;SDS011;29762;50.086;14.364;2022-08-01T18:43:20;1.58;;;0.80;;
44098;SDS011;29762;50.086;14.364;2022-08-01T18:48:40;2.30;;;0.70;;
44098;SDS011;29762;50.086;14.364;2022-08-01T18:54:01;4.43;;;0.90;;
44098;SDS011;29762;50.086;14.364;2022-08-01T18:59:21;0.95;;;0.80;;
44098;SDS011;29762;50.086;14.364;2022-08-01T19:04:42;1.33;;;0.93;;
44098;SDS011;29762;50.086;14.364;2022-08-01T19:10:02;0.98;;;0.85;;
44098;SDS011;29762;50.086;14.364;2022-08-01T19:15:22;1.10;;;1.00;;
44098;SDS011;29762;50.086;14.364;2022-08-01T19:20:41;1.23;;;0.88;;
44098;SDS011;29762;50.086;14.364;2022-08-01T19:26:03;0.95;;;0.90;;
44098;SDS011;29762;50.086;14.364;2022-08-01T19:31:25;0.73;;;0.73;;
44098;SDS011;29762;50.086;14.364;2022-08-01T19:36:48;1.45;;;0.93;;
44098;SDS011;29762;50.086;14.364;2022-08-01T19:42:09;1.05;;;0.95;;
44098;SDS011;29762;50.086;14.364;2022-08-01T19:47:30;2.70;;;1.00;;
44098;SDS011;29762;50.086;14.364;2022-08-01T19:52:51;2.03;;;0.93;;
44098;SDS011;29762;50.086;14.364;2022-08-01T19:58:11;2.58;;;0.93;;
44098;SDS011;29762;50.086;14.364;2022-08-01T20:03:33;1.70;;;0.77;;
44098;SDS011;29762;50.086;14.364;2022-08-01T20:08:53;3.10;;;1.00;;
44098;SDS011;29762;50.086;14.364;2022-08-01T20:14:15;1.17;;;1.05;;
44098;SDS011;29762;50.086;14.364;2022-08-01T20:19:36;3.58;;;1.30;;
44098;SDS011;29762;50.086;14.364;2022-08-01T20:24:58;1.98;;;1.30;;
44098;SDS011;29762;50.086;14.364;2022-08-01T20:30:19;1.35;;;1.25;;
44098;SDS011;29762;50.086;14.364;2022-08-01T20:35:40;1.73;;;1.20;;
44098;SDS011;29762;50.086;14.364;2022-08-01T20:41:01;1.38;;;1.27;;
44098;SDS011;29762;50.086;14.364;2022-08-01T20:46:24;2.90;;;1.30;;
44098;SDS011;29762;50.086;14.364;2022-08-01T20:51:45;3.25;;;1.38;;
44098;SDS011;29762;50.086;14.364;2022-08-01T20:57:22;1.88;;;1.20;;
44098;SDS011;29762;50.086;14.364;2022-08-01T21:08:23;1.45;;;1.35;;
44098;SDS011;29762;50.086;14.364;2022-08-01T21:13:53;2.40;;;1.30;;
44098;SDS011;29762;50.086;14.364;2022-08-01T21:19:15;1.40;;;1.30;;
44098;SDS011;29762;50.086;14.364;2022-08-01T21:24:52;1.88;;;1.42;;
44098;SDS011;29762;50.086;14.364;2022-08-01T21:30:12;1.67;;;1.42;;
44098;SDS011;29762;50.086;14.364;2022-08-01T21:35:32;2.03;;;1.15;;
44098;SDS011;29762;50.086;14.364;2022-08-01T21:40:53;2.80;;;1.20;;
44098;SDS011;29762;50.086;14.364;2022-08-01T21:46:13;1.20;;;1.08;;
44098;SDS011;29762;50.086;14.364;2022-08-01T21:51:39;1.63;;;1.20;;
44098;SDS011;29762;50.086;14.364;2022-08-01T22:08:26;1.60;;;1.27;;
44098;SDS011;29762;50.086;14.364;2022-08-01T22:13:56;1.40;;;1.30;;
44098;SDS011;29762;50.086;14.364;2022-08-01T22:19:16;2.33;;;1.42;;
44098;SDS011;29762;50.086;14.364;2022-08-01T22:24:36;1.75;;;1.25;;
44098;SDS011;29762;50.086;14.364;2022-08-01T22:29:56;2.08;;;1.30;;
44098;SDS011;29762;50.086;14.364;2022-08-01T22:35:24;1.33;;;1.10;;
44098;SDS011;29762;50.086;14.364;2022-08-01T22:40:46;1.17;;;1.00;;
44098;SDS011;29762;50.086;14.364;2022-08-01T22:51:39;0.93;;;0.93;;
44098;SDS011;29762;50.086;14.364;2022-08-01T22:57:03;0.82;;;0.82;;
44098;SDS011;29762;50.086;14.364;2022-08-01T23:02:23;1.05;;;0.95;;
44098;SDS011;29762;50.086;14.364;2022-08-01T23:07:45;1.33;;;0.93;;
44098;SDS011;29762;50.086;14.364;2022-08-01T23:13:09;0.95;;;0.88;;
44098;SDS011;29762;50.086;14.364;2022-08-01T23:18:29;1.30;;;0.77;;
44098;SDS011;29762;50.086;14.364;2022-08-01T23:23:49;1.42;;;0.70;;
44098;SDS011;29762;50.086;14.364;2022-08-01T23:29:09;2.17;;;0.70;;
44098;SDS011;29762;50.086;14.364;2022-08-01T23:34:28;0.77;;;0.70;;
44098;SDS011;29762;50.086;14.364;2022-08-01T23:39:48;2.20;;;0.70;;
44098;SDS011;29762;50.086;14.364;2022-08-01T23:45:07;1.20;;;0.70;;
44098;SDS011;29762;50.086;14.364;2022-08-01T23:50:27;1.55;;;0.90;;
44098;SDS011;29762;50.086;14.364;2022-08-01T23:55:47;1.00;;;0.70;;
